sensor_id;sensor_type;location;lat;lon;timestamp;P1;durP1;ratioP1;P2;durP2;ratioP2
43248;SDS011;29216;51.248;6.808;2022-12-18T00:01:56;13.50;;;6.53;;
43248;SDS011;29216;51.248;6.808;2022-12-18T00:04:24;13.40;;;7.23;;
43248;SDS011;29216;51.248;6.808;2022-12-18T00:06:50;15.43;;;7.10;;
43248;SDS011;29216;51.248;6.808;2022-12-18T00:09:16;14.57;;;7.10;;
43248;SDS011;29216;51.248;6.808;2022-12-18T00:11:42;16.40;;;8.03;;
43248;SDS011;29216;51.248;6.808;2022-12-18T00:14:08;10.17;;;6.60;;
43248;SDS011;29216;51.248;6.808;2022-12-18T00:16:36;13.67;;;7.20;;
43248;SDS011;29216;51.248;6.808;2022-12-18T00:19:02;12.07;;;7.17;;
43248;SDS011;29216;51.248;6.808;2022-12-18T00:21:29;14.83;;;6.80;;
43248;SDS011;29216;51.248;6.808;2022-12-18T00:23:56;13.73;;;7.00;;
43248;SDS011;29216;51.248;6.808;2022-12-18T00:26:24;12.67;;;6.73;;
43248;SDS011;29216;51.248;6.808;2022-12-18T00:28:51;10.87;;;6.70;;
43248;SDS011;29216;51.248;6.808;2022-12-18T00:31:19;12.53;;;7.53;;
43248;SDS011;29216;51.248;6.808;2022-12-18T00:33:47;9.60;;;6.10;;
43248;SDS011;29216;51.248;6.808;2022-12-18T00:36:14;13.60;;;6.43;;
43248;SDS011;29216;51.248;6.808;2022-12-18T00:38:42;12.80;;;6.50;;
43248;SDS011;29216;51.248;6.808;2022-12-18T00:41:08;15.43;;;6.60;;
43248;SDS011;29216;51.248;6.808;2022-12-18T00:43:36;14.33;;;6.87;;
43248;SDS011;29216;51.248;6.808;2022-12-18T00:46:02;11.43;;;6.43;;
43248;SDS011;29216;51.248;6.808;2022-12-18T00:48:28;9.93;;;6.10;;
43248;SDS011;29216;51.248;6.808;2022-12-18T00:50:54;10.80;;;6.23;;
43248;SDS011;29216;51.248;6.808;2022-12-18T00:53:19;12.37;;;6.80;;
43248;SDS011;29216;51.248;6.808;2022-12-18T00:55:45;13.60;;;7.23;;
43248;SDS011;29216;51.248;6.808;2022-12-18T00:58:11;12.20;;;7.50;;
43248;SDS011;29216;51.248;6.808;2022-12-18T01:00:38;14.43;;;7.37;;
43248;SDS011;29216;51.248;6.808;2022-12-18T01:03:04;16.77;;;7.23;;
43248;SDS011;29216;51.248;6.808;2022-12-18T01:05:30;12.70;;;7.30;;
43248;SDS011;29216;51.248;6.808;2022-12-18T01:07:56;13.73;;;7.27;;
43248;SDS011;29216;51.248;6.808;2022-12-18T01:10:23;14.37;;;6.87;;
43248;SDS011;29216;51.248;6.808;2022-12-18T01:12:49;13.80;;;6.30;;
43248;SDS011;29216;51.248;6.808;2022-12-18T01:15:15;12.27;;;6.40;;
43248;SDS011;29216;51.248;6.808;2022-12-18T01:17:41;14.03;;;7.07;;
43248;SDS011;29216;51.248;6.808;2022-12-18T01:20:07;11.20;;;7.20;;
43248;SDS011;29216;51.248;6.808;2022-12-18T01:22:34;16.70;;;7.57;;
43248;SDS011;29216;51.248;6.808;2022-12-18T01:25:01;13.53;;;7.37;;
43248;SDS011;29216;51.248;6.808;2022-12-18T01:27:27;16.07;;;6.93;;
43248;SDS011;29216;51.248;6.808;2022-12-18T01:29:53;15.93;;;7.33;;
43248;SDS011;29216;51.248;6.808;2022-12-18T01:32:19;11.13;;;6.47;;
43248;SDS011;29216;51.248;6.808;2022-12-18T01:34:44;12.37;;;6.80;;
43248;SDS011;29216;51.248;6.808;2022-12-18T01:37:10;15.07;;;7.63;;
43248;SDS011;29216;51.248;6.808;2022-12-18T01:39:36;17.30;;;7.23;;
43248;SDS011;29216;51.248;6.808;2022-12-18T01:42:02;11.93;;;7.37;;
43248;SDS011;29216;51.248;6.808;2022-12-18T01:47:16;11.07;;;6.35;;
43248;SDS011;29216;51.248;6.808;2022-12-18T01:50:10;12.03;;;6.20;;
43248;SDS011;29216;51.248;6.808;2022-12-18T01:52:47;11.07;;;6.57;;
43248;SDS011;29216;51.248;6.808;2022-12-18T01:55:17;10.97;;;6.70;;
43248;SDS011;29216;51.248;6.808;2022-12-18T01:57:45;13.23;;;6.67;;
43248;SDS011;29216;51.248;6.808;2022-12-18T02:00:14;12.60;;;6.57;;
43248;SDS011;29216;51.248;6.808;2022-12-18T02:02:42;10.77;;;6.57;;
43248;SDS011;29216;51.248;6.808;2022-12-18T02:05:10;12.37;;;6.17;;
43248;SDS011;29216;51.248;6.808;2022-12-18T02:10:32;13.27;;;6.37;;
43248;SDS011;29216;51.248;6.808;2022-12-18T02:13:11;14.37;;;7.10;;
43248;SDS011;29216;51.248;6.808;2022-12-18T02:16:02;14.10;;;6.70;;
43248;SDS011;29216;51.248;6.808;2022-12-18T02:18:53;11.57;;;6.32;;
43248;SDS011;29216;51.248;6.808;2022-12-18T02:27:06;13.03;;;6.27;;
43248;SDS011;29216;51.248;6.808;2022-12-18T02:29:36;10.93;;;6.40;;
43248;SDS011;29216;51.248;6.808;2022-12-18T02:32:13;12.97;;;6.43;;
43248;SDS011;29216;51.248;6.808;2022-12-18T02:34:41;13.83;;;7.30;;
43248;SDS011;29216;51.248;6.808;2022-12-18T02:37:10;11.47;;;6.67;;
43248;SDS011;29216;51.248;6.808;2022-12-18T02:39:40;11.70;;;6.47;;
43248;SDS011;29216;51.248;6.808;2022-12-18T02:42:08;11.10;;;6.33;;
43248;SDS011;29216;51.248;6.808;2022-12-18T02:44:45;11.80;;;5.77;;
43248;SDS011;29216;51.248;6.808;2022-12-18T02:47:13;12.23;;;6.27;;
43248;SDS011;29216;51.248;6.808;2022-12-18T02:52:42;10.73;;;5.80;;
43248;SDS011;29216;51.248;6.808;2022-12-18T02:55:29;11.40;;;6.20;;
43248;SDS011;29216;51.248;6.808;2022-12-18T03:04:09;10.20;;;5.87;;
43248;SDS011;29216;51.248;6.808;2022-12-18T03:06:41;11.70;;;5.80;;
43248;SDS011;29216;51.248;6.808;2022-12-18T03:09:14;8.73;;;6.23;;
43248;SDS011;29216;51.248;6.808;2022-12-18T03:11:48;11.43;;;6.07;;
43248;SDS011;29216;51.248;6.808;2022-12-18T03:14:38;10.90;;;6.13;;
43248;SDS011;29216;51.248;6.808;2022-12-18T03:17:07;11.87;;;6.27;;
43248;SDS011;29216;51.248;6.808;2022-12-18T03:19:38;10.13;;;6.00;;
43248;SDS011;29216;51.248;6.808;2022-12-18T03:22:05;10.60;;;6.03;;
43248;SDS011;29216;51.248;6.808;2022-12-18T03:24:32;9.20;;;5.67;;
43248;SDS011;29216;51.248;6.808;2022-12-18T03:27:02;10.37;;;6.20;;
43248;SDS011;29216;51.248;6.808;2022-12-18T03:29:35;9.13;;;5.57;;
43248;SDS011;29216;51.248;6.808;2022-12-18T03:32:28;11.70;;;5.60;;
43248;SDS011;29216;51.248;6.808;2022-12-18T03:34:59;11.27;;;6.10;;
43248;SDS011;29216;51.248;6.808;2022-12-18T03:37:28;11.37;;;6.90;;
43248;SDS011;29216;51.248;6.808;2022-12-18T03:39:54;12.50;;;5.57;;
43248;SDS011;29216;51.248;6.808;2022-12-18T03:50:29;12.10;;;6.10;;
43248;SDS011;29216;51.248;6.808;2022-12-18T03:55:38;11.90;;;6.20;;
43248;SDS011;29216;51.248;6.808;2022-12-18T03:58:06;11.03;;;5.53;;
43248;SDS011;29216;51.248;6.808;2022-12-18T04:00:34;8.77;;;6.23;;
43248;SDS011;29216;51.248;6.808;2022-12-18T04:03:00;13.33;;;6.00;;
43248;SDS011;29216;51.248;6.808;2022-12-18T04:05:28;9.50;;;6.17;;
43248;SDS011;29216;51.248;6.808;2022-12-18T04:07:56;11.83;;;6.10;;
43248;SDS011;29216;51.248;6.808;2022-12-18T04:10:23;10.40;;;5.97;;
43248;SDS011;29216;51.248;6.808;2022-12-18T04:12:48;12.90;;;6.17;;
43248;SDS011;29216;51.248;6.808;2022-12-18T04:15:14;9.67;;;6.47;;
43248;SDS011;29216;51.248;6.808;2022-12-18T04:17:48;8.67;;;5.83;;
43248;SDS011;29216;51.248;6.808;2022-12-18T04:20:15;12.17;;;6.03;;
43248;SDS011;29216;51.248;6.808;2022-12-18T04:22:41;15.73;;;6.40;;
43248;SDS011;29216;51.248;6.808;2022-12-18T04:25:06;10.40;;;6.33;;
43248;SDS011;29216;51.248;6.808;2022-12-18T04:27:33;11.73;;;6.50;;
43248;SDS011;29216;51.248;6.808;2022-12-18T04:29:58;12.77;;;6.40;;
43248;SDS011;29216;51.248;6.808;2022-12-18T04:32:24;10.20;;;6.00;;
43248;SDS011;29216;51.248;6.808;2022-12-18T04:34:50;12.60;;;6.70;;
43248;SDS011;29216;51.248;6.808;2022-12-18T04:37:15;13.10;;;6.57;;
43248;SDS011;29216;51.248;6.808;2022-12-18T04:39:41;13.50;;;6.70;;
43248;SDS011;29216;51.248;6.808;2022-12-18T04:42:06;11.00;;;6.63;;
43248;SDS011;29216;51.248;6.808;2022-12-18T04:44:32;11.03;;;6.07;;
43248;SDS011;29216;51.248;6.808;2022-12-18T04:46:59;8.90;;;5.70;;
43248;SDS011;29216;51.248;6.808;2022-12-18T04:49:24;9.90;;;6.20;;
43248;SDS011;29216;51.248;6.808;2022-12-18T04:51:50;12.50;;;6.17;;
43248;SDS011;29216;51.248;6.808;2022-12-18T04:54:16;11.87;;;6.60;;
43248;SDS011;29216;51.248;6.808;2022-12-18T04:56:45;10.90;;;6.23;;
43248;SDS011;29216;51.248;6.808;2022-12-18T04:59:10;11.07;;;5.73;;
43248;SDS011;29216;51.248;6.808;2022-12-18T05:01:36;11.03;;;5.20;;
43248;SDS011;29216;51.248;6.808;2022-12-18T05:04:02;8.30;;;5.43;;
43248;SDS011;29216;51.248;6.808;2022-12-18T05:06:28;11.00;;;6.43;;
43248;SDS011;29216;51.248;6.808;2022-12-18T05:08:54;10.67;;;6.17;;
43248;SDS011;29216;51.248;6.808;2022-12-18T05:11:20;11.90;;;5.97;;
43248;SDS011;29216;51.248;6.808;2022-12-18T05:13:46;11.37;;;6.73;;
43248;SDS011;29216;51.248;6.808;2022-12-18T05:16:12;11.03;;;6.50;;
43248;SDS011;29216;51.248;6.808;2022-12-18T05:18:38;11.90;;;6.90;;
43248;SDS011;29216;51.248;6.808;2022-12-18T05:21:04;9.97;;;5.93;;
43248;SDS011;29216;51.248;6.808;2022-12-18T05:23:30;11.67;;;6.33;;
43248;SDS011;29216;51.248;6.808;2022-12-18T05:26:00;12.27;;;6.43;;
43248;SDS011;29216;51.248;6.808;2022-12-18T05:28:29;12.40;;;6.13;;
43248;SDS011;29216;51.248;6.808;2022-12-18T05:30:57;11.27;;;6.27;;
43248;SDS011;29216;51.248;6.808;2022-12-18T05:33:25;9.03;;;5.53;;
43248;SDS011;29216;51.248;6.808;2022-12-18T05:35:52;10.93;;;6.63;;
43248;SDS011;29216;51.248;6.808;2022-12-18T05:38:20;10.97;;;5.60;;
43248;SDS011;29216;51.248;6.808;2022-12-18T05:40:47;10.83;;;5.57;;
43248;SDS011;29216;51.248;6.808;2022-12-18T05:43:13;10.20;;;5.83;;
43248;SDS011;29216;51.248;6.808;2022-12-18T05:45:39;10.20;;;5.77;;
43248;SDS011;29216;51.248;6.808;2022-12-18T05:48:05;9.23;;;5.57;;
43248;SDS011;29216;51.248;6.808;2022-12-18T05:50:38;12.57;;;6.63;;
43248;SDS011;29216;51.248;6.808;2022-12-18T05:53:05;11.13;;;6.37;;
43248;SDS011;29216;51.248;6.808;2022-12-18T05:55:34;11.93;;;6.00;;
43248;SDS011;29216;51.248;6.808;2022-12-18T05:58:01;11.43;;;6.73;;
43248;SDS011;29216;51.248;6.808;2022-12-18T06:00:27;9.23;;;5.97;;
43248;SDS011;29216;51.248;6.808;2022-12-18T06:02:53;9.57;;;5.53;;
43248;SDS011;29216;51.248;6.808;2022-12-18T06:05:19;10.50;;;5.70;;
43248;SDS011;29216;51.248;6.808;2022-12-18T06:07:45;10.67;;;5.50;;
43248;SDS011;29216;51.248;6.808;2022-12-18T06:10:10;10.60;;;6.03;;
43248;SDS011;29216;51.248;6.808;2022-12-18T06:12:36;7.53;;;4.67;;
43248;SDS011;29216;51.248;6.808;2022-12-18T06:15:02;10.70;;;6.20;;
43248;SDS011;29216;51.248;6.808;2022-12-18T06:17:31;10.13;;;6.00;;
43248;SDS011;29216;51.248;6.808;2022-12-18T06:19:57;10.83;;;6.13;;
43248;SDS011;29216;51.248;6.808;2022-12-18T06:22:23;14.87;;;6.53;;
43248;SDS011;29216;51.248;6.808;2022-12-18T06:24:49;9.27;;;5.50;;
43248;SDS011;29216;51.248;6.808;2022-12-18T06:27:15;10.37;;;6.27;;
43248;SDS011;29216;51.248;6.808;2022-12-18T06:29:40;10.13;;;5.67;;
43248;SDS011;29216;51.248;6.808;2022-12-18T06:32:06;11.10;;;5.80;;
43248;SDS011;29216;51.248;6.808;2022-12-18T06:34:32;10.37;;;5.50;;
43248;SDS011;29216;51.248;6.808;2022-12-18T06:36:58;11.77;;;6.13;;
43248;SDS011;29216;51.248;6.808;2022-12-18T06:39:24;11.10;;;6.43;;
43248;SDS011;29216;51.248;6.808;2022-12-18T06:41:51;12.37;;;7.07;;
43248;SDS011;29216;51.248;6.808;2022-12-18T06:44:17;13.73;;;6.47;;
43248;SDS011;29216;51.248;6.808;2022-12-18T06:46:43;11.10;;;6.77;;
43248;SDS011;29216;51.248;6.808;2022-12-18T06:49:08;10.93;;;6.53;;
43248;SDS011;29216;51.248;6.808;2022-12-18T06:51:34;9.17;;;5.13;;
43248;SDS011;29216;51.248;6.808;2022-12-18T06:54:00;11.77;;;6.27;;
43248;SDS011;29216;51.248;6.808;2022-12-18T06:56:26;11.07;;;6.13;;
43248;SDS011;29216;51.248;6.808;2022-12-18T06:58:52;9.87;;;5.93;;
43248;SDS011;29216;51.248;6.808;2022-12-18T07:01:18;13.17;;;6.20;;
43248;SDS011;29216;51.248;6.808;2022-12-18T07:03:44;10.03;;;6.23;;
43248;SDS011;29216;51.248;6.808;2022-12-18T07:06:13;11.10;;;6.23;;
43248;SDS011;29216;51.248;6.808;2022-12-18T07:08:41;12.00;;;6.77;;
43248;SDS011;29216;51.248;6.808;2022-12-18T07:11:07;9.13;;;5.80;;
43248;SDS011;29216;51.248;6.808;2022-12-18T07:13:32;12.37;;;5.97;;
43248;SDS011;29216;51.248;6.808;2022-12-18T07:18:34;18.43;;;6.53;;
43248;SDS011;29216;51.248;6.808;2022-12-18T07:21:06;12.13;;;6.60;;
43248;SDS011;29216;51.248;6.808;2022-12-18T07:23:33;12.27;;;6.82;;
43248;SDS011;29216;51.248;6.808;2022-12-18T07:26:04;13.40;;;6.43;;
43248;SDS011;29216;51.248;6.808;2022-12-18T07:28:31;10.73;;;5.73;;
43248;SDS011;29216;51.248;6.808;2022-12-18T07:30:58;12.57;;;6.30;;
43248;SDS011;29216;51.248;6.808;2022-12-18T07:33:27;14.30;;;6.73;;
43248;SDS011;29216;51.248;6.808;2022-12-18T07:35:52;14.43;;;6.63;;
43248;SDS011;29216;51.248;6.808;2022-12-18T07:38:18;11.80;;;7.10;;
43248;SDS011;29216;51.248;6.808;2022-12-18T07:40:44;10.53;;;6.17;;
43248;SDS011;29216;51.248;6.808;2022-12-18T07:43:09;12.60;;;6.40;;
43248;SDS011;29216;51.248;6.808;2022-12-18T07:45:35;12.23;;;6.33;;
43248;SDS011;29216;51.248;6.808;2022-12-18T07:48:01;12.00;;;6.60;;
43248;SDS011;29216;51.248;6.808;2022-12-18T07:50:26;12.30;;;6.97;;
43248;SDS011;29216;51.248;6.808;2022-12-18T07:52:52;11.87;;;6.07;;
43248;SDS011;29216;51.248;6.808;2022-12-18T07:55:18;10.20;;;5.70;;
43248;SDS011;29216;51.248;6.808;2022-12-18T07:57:43;13.07;;;7.20;;
43248;SDS011;29216;51.248;6.808;2022-12-18T08:00:09;12.27;;;6.80;;
43248;SDS011;29216;51.248;6.808;2022-12-18T08:02:35;12.07;;;6.73;;
43248;SDS011;29216;51.248;6.808;2022-12-18T08:05:01;14.87;;;7.07;;
43248;SDS011;29216;51.248;6.808;2022-12-18T08:07:26;15.50;;;6.60;;
43248;SDS011;29216;51.248;6.808;2022-12-18T08:09:52;12.07;;;6.77;;
43248;SDS011;29216;51.248;6.808;2022-12-18T08:12:17;10.77;;;6.07;;
43248;SDS011;29216;51.248;6.808;2022-12-18T08:14:43;13.87;;;6.50;;
43248;SDS011;29216;51.248;6.808;2022-12-18T08:17:09;11.60;;;6.10;;
43248;SDS011;29216;51.248;6.808;2022-12-18T08:19:34;11.60;;;6.80;;
43248;SDS011;29216;51.248;6.808;2022-12-18T08:22:00;10.30;;;5.97;;
43248;SDS011;29216;51.248;6.808;2022-12-18T08:24:25;10.70;;;6.07;;
43248;SDS011;29216;51.248;6.808;2022-12-18T08:26:51;11.90;;;6.33;;
43248;SDS011;29216;51.248;6.808;2022-12-18T08:29:17;14.87;;;6.93;;
43248;SDS011;29216;51.248;6.808;2022-12-18T08:31:42;11.20;;;6.70;;
43248;SDS011;29216;51.248;6.808;2022-12-18T08:34:08;13.00;;;6.63;;
43248;SDS011;29216;51.248;6.808;2022-12-18T08:36:34;13.43;;;6.53;;
43248;SDS011;29216;51.248;6.808;2022-12-18T08:38:59;10.43;;;6.00;;
43248;SDS011;29216;51.248;6.808;2022-12-18T08:41:25;12.60;;;6.90;;
43248;SDS011;29216;51.248;6.808;2022-12-18T08:43:51;11.13;;;6.70;;
43248;SDS011;29216;51.248;6.808;2022-12-18T08:46:36;13.18;;;6.70;;
43248;SDS011;29216;51.248;6.808;2022-12-18T08:49:04;15.03;;;6.97;;
43248;SDS011;29216;51.248;6.808;2022-12-18T08:51:30;13.87;;;6.20;;
43248;SDS011;29216;51.248;6.808;2022-12-18T08:53:56;14.93;;;6.37;;
43248;SDS011;29216;51.248;6.808;2022-12-18T08:56:22;11.10;;;6.73;;
43248;SDS011;29216;51.248;6.808;2022-12-18T08:58:50;14.73;;;6.50;;
43248;SDS011;29216;51.248;6.808;2022-12-18T09:01:17;13.70;;;7.07;;
43248;SDS011;29216;51.248;6.808;2022-12-18T09:03:43;11.47;;;6.83;;
43248;SDS011;29216;51.248;6.808;2022-12-18T09:06:08;11.60;;;6.33;;
43248;SDS011;29216;51.248;6.808;2022-12-18T09:08:38;11.80;;;6.10;;
43248;SDS011;29216;51.248;6.808;2022-12-18T09:11:03;12.20;;;6.70;;
43248;SDS011;29216;51.248;6.808;2022-12-18T09:13:29;9.80;;;5.93;;
43248;SDS011;29216;51.248;6.808;2022-12-18T09:15:55;12.07;;;6.83;;
43248;SDS011;29216;51.248;6.808;2022-12-18T09:18:21;15.73;;;7.03;;
43248;SDS011;29216;51.248;6.808;2022-12-18T09:20:47;12.77;;;7.03;;
43248;SDS011;29216;51.248;6.808;2022-12-18T09:23:13;15.07;;;6.07;;
43248;SDS011;29216;51.248;6.808;2022-12-18T09:25:39;11.20;;;6.90;;
43248;SDS011;29216;51.248;6.808;2022-12-18T09:28:06;10.73;;;6.63;;
43248;SDS011;29216;51.248;6.808;2022-12-18T09:30:39;9.90;;;6.67;;
43248;SDS011;29216;51.248;6.808;2022-12-18T09:33:05;12.23;;;6.87;;
43248;SDS011;29216;51.248;6.808;2022-12-18T09:35:44;11.90;;;6.53;;
43248;SDS011;29216;51.248;6.808;2022-12-18T09:38:23;13.27;;;6.60;;
43248;SDS011;29216;51.248;6.808;2022-12-18T09:40:51;10.40;;;6.30;;
43248;SDS011;29216;51.248;6.808;2022-12-18T09:43:28;11.83;;;6.67;;
43248;SDS011;29216;51.248;6.808;2022-12-18T09:46:06;12.70;;;7.17;;
43248;SDS011;29216;51.248;6.808;2022-12-18T09:48:41;12.80;;;6.33;;
43248;SDS011;29216;51.248;6.808;2022-12-18T09:51:22;13.03;;;7.13;;
43248;SDS011;29216;51.248;6.808;2022-12-18T09:53:59;12.57;;;6.37;;
43248;SDS011;29216;51.248;6.808;2022-12-18T09:56:37;15.27;;;7.97;;
43248;SDS011;29216;51.248;6.808;2022-12-18T09:59:06;13.13;;;7.67;;
43248;SDS011;29216;51.248;6.808;2022-12-18T10:01:45;12.17;;;6.37;;
43248;SDS011;29216;51.248;6.808;2022-12-18T10:04:10;11.43;;;7.03;;
43248;SDS011;29216;51.248;6.808;2022-12-18T10:06:45;12.27;;;6.80;;
43248;SDS011;29216;51.248;6.808;2022-12-18T10:09:34;12.30;;;6.87;;
43248;SDS011;29216;51.248;6.808;2022-12-18T10:15:13;14.17;;;7.23;;
43248;SDS011;29216;51.248;6.808;2022-12-18T10:21:16;11.60;;;6.30;;
43248;SDS011;29216;51.248;6.808;2022-12-18T10:26:24;13.97;;;7.23;;
43248;SDS011;29216;51.248;6.808;2022-12-18T10:28:50;12.50;;;7.10;;
43248;SDS011;29216;51.248;6.808;2022-12-18T10:31:19;12.53;;;6.97;;
43248;SDS011;29216;51.248;6.808;2022-12-18T10:33:46;11.57;;;6.60;;
43248;SDS011;29216;51.248;6.808;2022-12-18T10:36:12;12.53;;;7.13;;
43248;SDS011;29216;51.248;6.808;2022-12-18T10:38:38;14.13;;;7.27;;
43248;SDS011;29216;51.248;6.808;2022-12-18T10:41:08;12.07;;;7.10;;
43248;SDS011;29216;51.248;6.808;2022-12-18T10:46:52;15.57;;;8.17;;
43248;SDS011;29216;51.248;6.808;2022-12-18T10:49:27;13.20;;;6.93;;
43248;SDS011;29216;51.248;6.808;2022-12-18T10:54:59;11.50;;;6.37;;
43248;SDS011;29216;51.248;6.808;2022-12-18T10:57:29;12.77;;;6.60;;
43248;SDS011;29216;51.248;6.808;2022-12-18T10:59:58;12.40;;;6.83;;
43248;SDS011;29216;51.248;6.808;2022-12-18T11:02:34;12.57;;;7.73;;
43248;SDS011;29216;51.248;6.808;2022-12-18T11:07:40;10.60;;;6.63;;
43248;SDS011;29216;51.248;6.808;2022-12-18T11:10:17;11.33;;;6.37;;
43248;SDS011;29216;51.248;6.808;2022-12-18T11:12:44;12.80;;;7.47;;
43248;SDS011;29216;51.248;6.808;2022-12-18T11:15:19;10.93;;;6.73;;
43248;SDS011;29216;51.248;6.808;2022-12-18T11:17:48;10.27;;;6.40;;
43248;SDS011;29216;51.248;6.808;2022-12-18T11:20:20;13.20;;;6.80;;
43248;SDS011;29216;51.248;6.808;2022-12-18T11:23:00;10.90;;;6.03;;
43248;SDS011;29216;51.248;6.808;2022-12-18T11:25:29;14.47;;;6.83;;
43248;SDS011;29216;51.248;6.808;2022-12-18T11:30:41;11.80;;;6.27;;
43248;SDS011;29216;51.248;6.808;2022-12-18T11:33:09;13.75;;;6.75;;
43248;SDS011;29216;51.248;6.808;2022-12-18T11:35:45;11.60;;;6.33;;
43248;SDS011;29216;51.248;6.808;2022-12-18T11:38:53;12.20;;;7.53;;
43248;SDS011;29216;51.248;6.808;2022-12-18T11:43:28;13.17;;;7.23;;
43248;SDS011;29216;51.248;6.808;2022-12-18T11:46:08;12.27;;;7.27;;
43248;SDS011;29216;51.248;6.808;2022-12-18T11:48:46;10.83;;;6.67;;
43248;SDS011;29216;51.248;6.808;2022-12-18T11:51:20;12.10;;;6.93;;
43248;SDS011;29216;51.248;6.808;2022-12-18T11:53:53;10.65;;;6.60;;
43248;SDS011;29216;51.248;6.808;2022-12-18T12:30:09;16.17;;;8.27;;
43248;SDS011;29216;51.248;6.808;2022-12-18T12:38:24;15.90;;;7.77;;
43248;SDS011;29216;51.248;6.808;2022-12-18T12:40:59;14.73;;;8.47;;
43248;SDS011;29216;51.248;6.808;2022-12-18T12:43:33;13.07;;;7.70;;
43248;SDS011;29216;51.248;6.808;2022-12-18T12:46:12;14.93;;;8.33;;
43248;SDS011;29216;51.248;6.808;2022-12-18T12:51:10;14.33;;;8.10;;
43248;SDS011;29216;51.248;6.808;2022-12-18T12:54:04;12.45;;;7.63;;
43248;SDS011;29216;51.248;6.808;2022-12-18T12:56:38;17.25;;;8.52;;
43248;SDS011;29216;51.248;6.808;2022-12-18T13:08:11;15.03;;;8.70;;
43248;SDS011;29216;51.248;6.808;2022-12-18T13:10:47;15.00;;;9.03;;
43248;SDS011;29216;51.248;6.808;2022-12-18T13:13:13;16.80;;;9.53;;
43248;SDS011;29216;51.248;6.808;2022-12-18T13:15:47;16.97;;;9.53;;
43248;SDS011;29216;51.248;6.808;2022-12-18T13:18:27;16.40;;;9.63;;
43248;SDS011;29216;51.248;6.808;2022-12-18T13:23:35;15.63;;;9.97;;
43248;SDS011;29216;51.248;6.808;2022-12-18T13:31:11;18.83;;;9.80;;
43248;SDS011;29216;51.248;6.808;2022-12-18T13:33:44;17.30;;;9.33;;
43248;SDS011;29216;51.248;6.808;2022-12-18T13:36:30;24.50;;;9.02;;
43248;SDS011;29216;51.248;6.808;2022-12-18T13:41:46;18.57;;;9.33;;
43248;SDS011;29216;51.248;6.808;2022-12-18T13:44:55;19.30;;;10.13;;
43248;SDS011;29216;51.248;6.808;2022-12-18T13:47:33;15.60;;;8.97;;
43248;SDS011;29216;51.248;6.808;2022-12-18T13:50:22;15.15;;;9.25;;
43248;SDS011;29216;51.248;6.808;2022-12-18T13:52:49;15.93;;;9.30;;
43248;SDS011;29216;51.248;6.808;2022-12-18T13:55:16;18.13;;;10.37;;
43248;SDS011;29216;51.248;6.808;2022-12-18T13:57:44;15.93;;;10.03;;
43248;SDS011;29216;51.248;6.808;2022-12-18T14:02:50;18.70;;;9.80;;
43248;SDS011;29216;51.248;6.808;2022-12-18T14:05:23;18.00;;;9.80;;
43248;SDS011;29216;51.248;6.808;2022-12-18T14:07:53;19.47;;;9.30;;
43248;SDS011;29216;51.248;6.808;2022-12-18T14:10:21;19.50;;;9.77;;
43248;SDS011;29216;51.248;6.808;2022-12-18T14:12:47;17.20;;;9.50;;
43248;SDS011;29216;51.248;6.808;2022-12-18T14:17:52;18.30;;;10.37;;
43248;SDS011;29216;51.248;6.808;2022-12-18T14:20:20;16.80;;;9.93;;
43248;SDS011;29216;51.248;6.808;2022-12-18T14:22:46;20.40;;;9.83;;
43248;SDS011;29216;51.248;6.808;2022-12-18T14:25:20;19.37;;;10.50;;
43248;SDS011;29216;51.248;6.808;2022-12-18T14:27:53;20.43;;;10.03;;
43248;SDS011;29216;51.248;6.808;2022-12-18T14:30:31;19.03;;;10.93;;
43248;SDS011;29216;51.248;6.808;2022-12-18T14:33:03;16.63;;;9.37;;
43248;SDS011;29216;51.248;6.808;2022-12-18T14:35:30;16.67;;;9.03;;
43248;SDS011;29216;51.248;6.808;2022-12-18T14:40:41;17.17;;;10.48;;
43248;SDS011;29216;51.248;6.808;2022-12-18T14:43:09;16.50;;;9.67;;
43248;SDS011;29216;51.248;6.808;2022-12-18T14:45:36;17.57;;;10.37;;
43248;SDS011;29216;51.248;6.808;2022-12-18T14:50:44;17.47;;;10.47;;
43248;SDS011;29216;51.248;6.808;2022-12-18T14:56:03;17.05;;;9.68;;
43248;SDS011;29216;51.248;6.808;2022-12-18T14:58:43;16.40;;;10.30;;
43248;SDS011;29216;51.248;6.808;2022-12-18T15:01:17;19.53;;;9.83;;
43248;SDS011;29216;51.248;6.808;2022-12-18T15:03:44;21.00;;;12.20;;
43248;SDS011;29216;51.248;6.808;2022-12-18T15:06:16;19.97;;;10.27;;
43248;SDS011;29216;51.248;6.808;2022-12-18T15:08:53;23.30;;;11.57;;
43248;SDS011;29216;51.248;6.808;2022-12-18T15:11:30;19.57;;;11.00;;
43248;SDS011;29216;51.248;6.808;2022-12-18T15:13:59;19.47;;;11.10;;
43248;SDS011;29216;51.248;6.808;2022-12-18T15:16:49;21.27;;;11.20;;
43248;SDS011;29216;51.248;6.808;2022-12-18T15:19:17;20.70;;;10.93;;
43248;SDS011;29216;51.248;6.808;2022-12-18T15:21:43;22.97;;;11.70;;
43248;SDS011;29216;51.248;6.808;2022-12-18T15:24:20;24.33;;;10.73;;
43248;SDS011;29216;51.248;6.808;2022-12-18T15:26:50;18.23;;;10.93;;
43248;SDS011;29216;51.248;6.808;2022-12-18T15:29:18;20.07;;;11.33;;
43248;SDS011;29216;51.248;6.808;2022-12-18T15:31:57;19.83;;;11.53;;
43248;SDS011;29216;51.248;6.808;2022-12-18T15:34:24;18.50;;;10.63;;
43248;SDS011;29216;51.248;6.808;2022-12-18T15:36:51;20.93;;;11.40;;
43248;SDS011;29216;51.248;6.808;2022-12-18T15:39:17;25.37;;;11.23;;
43248;SDS011;29216;51.248;6.808;2022-12-18T15:41:42;21.83;;;12.03;;
43248;SDS011;29216;51.248;6.808;2022-12-18T15:44:28;21.33;;;11.73;;
43248;SDS011;29216;51.248;6.808;2022-12-18T15:46:54;22.00;;;11.50;;
43248;SDS011;29216;51.248;6.808;2022-12-18T15:49:20;20.80;;;12.03;;
43248;SDS011;29216;51.248;6.808;2022-12-18T15:51:45;21.63;;;12.00;;
43248;SDS011;29216;51.248;6.808;2022-12-18T15:54:18;23.60;;;12.97;;
43248;SDS011;29216;51.248;6.808;2022-12-18T15:57:05;23.70;;;10.97;;
43248;SDS011;29216;51.248;6.808;2022-12-18T15:59:48;23.47;;;12.83;;
43248;SDS011;29216;51.248;6.808;2022-12-18T16:02:16;19.27;;;10.80;;
43248;SDS011;29216;51.248;6.808;2022-12-18T16:04:43;21.63;;;11.97;;
43248;SDS011;29216;51.248;6.808;2022-12-18T16:07:09;21.10;;;11.67;;
43248;SDS011;29216;51.248;6.808;2022-12-18T16:09:35;21.37;;;11.70;;
43248;SDS011;29216;51.248;6.808;2022-12-18T16:12:01;22.00;;;12.07;;
43248;SDS011;29216;51.248;6.808;2022-12-18T16:14:28;22.40;;;12.40;;
43248;SDS011;29216;51.248;6.808;2022-12-18T16:19:22;25.90;;;12.33;;
43248;SDS011;29216;51.248;6.808;2022-12-18T16:21:49;24.17;;;12.27;;
43248;SDS011;29216;51.248;6.808;2022-12-18T16:24:20;23.37;;;12.43;;
43248;SDS011;29216;51.248;6.808;2022-12-18T16:26:51;24.90;;;12.70;;
43248;SDS011;29216;51.248;6.808;2022-12-18T16:29:17;24.00;;;12.23;;
43248;SDS011;29216;51.248;6.808;2022-12-18T16:31:44;25.17;;;13.77;;
43248;SDS011;29216;51.248;6.808;2022-12-18T16:34:11;25.17;;;12.77;;
43248;SDS011;29216;51.248;6.808;2022-12-18T16:36:43;23.70;;;12.37;;
43248;SDS011;29216;51.248;6.808;2022-12-18T16:39:08;26.40;;;13.17;;
43248;SDS011;29216;51.248;6.808;2022-12-18T16:41:34;25.27;;;13.43;;
43248;SDS011;29216;51.248;6.808;2022-12-18T16:44:00;24.07;;;13.17;;
43248;SDS011;29216;51.248;6.808;2022-12-18T16:46:26;27.00;;;13.53;;
43248;SDS011;29216;51.248;6.808;2022-12-18T16:48:51;24.37;;;12.23;;
43248;SDS011;29216;51.248;6.808;2022-12-18T16:51:17;25.07;;;12.30;;
43248;SDS011;29216;51.248;6.808;2022-12-18T16:53:43;32.90;;;13.27;;
43248;SDS011;29216;51.248;6.808;2022-12-18T16:56:09;23.33;;;13.33;;
43248;SDS011;29216;51.248;6.808;2022-12-18T16:58:34;26.13;;;13.17;;
43248;SDS011;29216;51.248;6.808;2022-12-18T17:01:00;28.67;;;14.53;;